createdAt,value
2022-11-16T00:00:18.970Z,23.29
2022-11-16T00:02:48.248Z,22.76
2022-11-16T00:05:15.809Z,23.03
2022-11-16T00:07:43.071Z,22.93
2022-11-16T00:10:11.502Z,22.74
2022-11-16T00:12:39.626Z,23.04
2022-11-16T00:15:07.184Z,23.06
2022-11-16T00:17:34.449Z,23.19
2022-11-16T00:20:01.951Z,23.04
2022-11-16T00:22:29.188Z,22.60
2022-11-16T00:24:56.504Z,22.89
2022-11-16T00:27:23.892Z,22.26
2022-11-16T00:29:51.272Z,22.91
2022-11-16T00:32:18.526Z,22.78
2022-11-16T00:34:45.835Z,22.48
2022-11-16T00:37:13.133Z,23.05
2022-11-16T00:39:40.690Z,22.87
2022-11-16T00:42:08.012Z,22.64
2022-11-16T00:44:35.312Z,23.04
2022-11-16T00:47:02.735Z,23.34
2022-11-16T00:49:30.196Z,23.21
2022-11-16T00:51:57.744Z,23.18
2022-11-16T00:54:25.325Z,23.29
2022-11-16T00:56:52.781Z,23.64
2022-11-16T00:59:20.308Z,22.88
2022-11-16T01:01:47.747Z,22.39
2022-11-16T01:04:15.263Z,22.55
2022-11-16T01:06:43.598Z,22.82
2022-11-16T01:09:11.071Z,23.11
2022-11-16T01:11:57.039Z,22.87
2022-11-16T01:14:24.398Z,23.46
2022-11-16T01:16:51.669Z,23.58
2022-11-16T01:19:20.877Z,23.44
2022-11-16T01:21:48.356Z,23.49
2022-11-16T01:24:15.716Z,23.29
2022-11-16T01:26:43.119Z,23.00
2022-11-16T01:29:10.462Z,23.06
2022-11-16T01:31:41.681Z,23.59
2022-11-16T01:34:09.843Z,23.54
2022-11-16T01:36:37.284Z,22.81
2022-11-16T01:39:05.793Z,23.28
2022-11-16T01:41:43.828Z,23.32
2022-11-16T01:44:29.683Z,23.42
2022-11-16T01:47:00.148Z,23.46
2022-11-16T01:49:28.726Z,22.83
2022-11-16T01:51:59.612Z,23.51
2022-11-16T01:54:29.506Z,23.13
2022-11-16T01:57:01.920Z,23.13
2022-11-16T01:59:36.834Z,23.19
2022-11-16T02:02:06.278Z,22.90
2022-11-16T02:04:34.869Z,22.67
2022-11-16T02:07:06.385Z,22.99
2022-11-16T02:09:52.956Z,22.68
2022-11-16T02:12:21.684Z,22.78
2022-11-16T02:15:09.949Z,23.09
2022-11-16T02:17:56.802Z,23.03
2022-11-16T02:20:44.592Z,22.80
2022-11-16T02:23:27.202Z,22.61
2022-11-16T02:26:14.732Z,22.24
2022-11-16T02:29:00.548Z,22.61
2022-11-16T02:31:29.963Z,22.66
2022-11-16T02:33:59.323Z,22.59
2022-11-16T02:36:27.110Z,22.86
2022-11-16T02:39:01.327Z,22.92
2022-11-16T02:41:31.734Z,22.67
2022-11-16T02:44:08.908Z,22.91
2022-11-16T02:46:39.412Z,22.85
2022-11-16T02:49:11.918Z,22.77
2022-11-16T02:51:42.253Z,22.54
2022-11-16T02:54:12.899Z,22.43
2022-11-16T02:56:52.107Z,22.26
2022-11-16T02:59:26.039Z,22.36
2022-11-16T03:02:13.616Z,22.14
2022-11-16T03:04:44.352Z,22.47
2022-11-16T03:07:14.310Z,22.74
2022-11-16T03:09:43.030Z,22.49
2022-11-16T03:12:12.374Z,21.96
2022-11-16T03:14:43.106Z,22.23
2022-11-16T03:17:16.246Z,22.33
2022-11-16T03:20:04.560Z,22.20
2022-11-16T03:22:45.285Z,22.17
2022-11-16T03:25:14.277Z,22.65
2022-11-16T03:27:56.944Z,22.10
2022-11-16T03:30:25.839Z,21.93
2022-11-16T03:33:24.920Z,22.32
2022-11-16T03:35:59.508Z,22.47
2022-11-16T03:38:28.587Z,21.93
2022-11-16T03:41:00.083Z,22.20
2022-11-16T03:43:28.112Z,21.90
2022-11-16T03:45:56.459Z,22.21
2022-11-16T03:48:24.251Z,22.36
2022-11-16T03:50:52.311Z,22.55
2022-11-16T03:53:20.307Z,22.28
2022-11-16T03:55:49.942Z,22.35
2022-11-16T03:58:18.761Z,22.64
2022-11-16T04:00:46.727Z,22.71
2022-11-16T04:03:14.260Z,22.33
2022-11-16T04:06:00.260Z,22.27
2022-11-16T04:08:46.251Z,21.88
2022-11-16T04:11:34.171Z,22.05
2022-11-16T04:14:20.430Z,21.98
2022-11-16T04:17:16.905Z,22.65
2022-11-16T04:20:02.629Z,22.48
2022-11-16T04:22:51.288Z,22.41
2022-11-16T04:25:23.668Z,22.75
2022-11-16T04:28:11.393Z,22.64
2022-11-16T04:30:58.448Z,22.96
2022-11-16T04:33:44.544Z,22.97
2022-11-16T04:36:31.172Z,22.41
2022-11-16T04:38:59.027Z,22.60
2022-11-16T04:41:45.032Z,22.24
2022-11-16T04:44:13.416Z,22.36
2022-11-16T04:46:59.266Z,22.27
2022-11-16T04:49:27.074Z,21.77
2022-11-16T04:51:56.988Z,21.74
2022-11-16T04:54:24.573Z,22.00
2022-11-16T04:56:51.776Z,21.90
2022-11-16T04:59:19.114Z,21.56
2022-11-16T05:02:05.171Z,21.77
2022-11-16T05:04:32.761Z,22.21
2022-11-16T05:07:00.093Z,22.23
2022-11-16T05:09:27.559Z,22.31
2022-11-16T05:11:54.768Z,22.41
2022-11-16T05:14:22.267Z,22.60
2022-11-16T05:16:50.067Z,22.15
2022-11-16T05:19:36.482Z,22.01
2022-11-16T05:22:03.822Z,22.28
2022-11-16T05:24:34.186Z,22.19
2022-11-16T05:27:02.968Z,21.56
2022-11-16T05:29:31.042Z,22.02
2022-11-16T05:31:59.128Z,22.59
2022-11-16T05:34:27.699Z,21.85
2022-11-16T05:36:55.079Z,21.32
2022-11-16T05:39:22.854Z,21.40
2022-11-16T05:41:52.350Z,20.90
2022-11-16T05:44:20.136Z,20.84
2022-11-16T05:46:48.710Z,21.07
2022-11-16T05:49:18.167Z,21.23
2022-11-16T05:51:46.355Z,20.46
2022-11-16T05:54:20.033Z,20.29
2022-11-16T05:56:48.678Z,21.59
2022-11-16T05:59:18.892Z,21.45
2022-11-16T06:01:48.350Z,20.92
2022-11-16T06:04:16.321Z,21.10
2022-11-16T06:06:43.589Z,21.38
2022-11-16T06:09:12.736Z,21.09
2022-11-16T06:11:40.193Z,20.66
2022-11-16T06:14:08.107Z,20.28
2022-11-16T06:16:36.863Z,20.48
2022-11-16T06:19:07.698Z,20.93
2022-11-16T06:21:35.207Z,20.89
2022-11-16T06:24:09.224Z,21.13
2022-11-16T06:26:37.220Z,21.00
2022-11-16T06:29:05.029Z,20.94
2022-11-16T06:31:33.511Z,21.10
2022-11-16T06:34:02.692Z,21.71
2022-11-16T06:36:30.095Z,20.84
2022-11-16T06:39:00.152Z,20.77
2022-11-16T06:41:29.097Z,21.83
2022-11-16T06:43:56.881Z,21.36
2022-11-16T06:46:30.616Z,21.13
2022-11-16T06:48:58.131Z,20.67
2022-11-16T06:51:26.159Z,20.60
2022-11-16T06:53:53.505Z,21.05
2022-11-16T06:56:21.995Z,20.84
2022-11-16T06:58:55.912Z,21.08
2022-11-16T07:01:24.658Z,21.27
2022-11-16T07:03:57.268Z,21.55
2022-11-16T07:06:24.952Z,21.34
2022-11-16T07:08:52.354Z,21.01
2022-11-16T07:11:24.777Z,21.54
2022-11-16T07:13:52.727Z,20.97
2022-11-16T07:16:22.117Z,21.19
2022-11-16T07:18:59.336Z,21.60
2022-11-16T07:21:29.267Z,21.51
2022-11-16T07:23:57.797Z,20.85
2022-11-16T07:26:25.159Z,21.22
2022-11-16T07:29:03.749Z,21.61
2022-11-16T07:31:32.734Z,21.81
2022-11-16T07:34:31.971Z,21.29
2022-11-16T07:37:08.537Z,20.60
2022-11-16T07:39:35.798Z,20.96
2022-11-16T07:42:08.066Z,21.21
2022-11-16T07:44:54.087Z,20.66
2022-11-16T07:47:21.484Z,20.45
2022-11-16T07:49:49.919Z,21.03
2022-11-16T07:52:20.074Z,20.95
2022-11-16T07:55:10.345Z,20.54
2022-11-16T07:57:38.636Z,20.92
2022-11-16T08:00:09.514Z,21.22
2022-11-16T08:02:48.196Z,20.69
2022-11-16T08:05:19.056Z,21.20
2022-11-16T08:07:48.775Z,21.23
2022-11-16T08:10:16.999Z,21.87
2022-11-16T08:12:44.507Z,21.16
2022-11-16T08:15:11.960Z,20.56
2022-11-16T08:17:39.429Z,21.16
2022-11-16T08:20:09.702Z,21.44
2022-11-16T08:22:36.967Z,21.21
2022-11-16T08:25:04.698Z,20.93
2022-11-16T08:27:32.586Z,20.76
2022-11-16T08:30:00.026Z,21.46
2022-11-16T08:32:29.812Z,21.16
2022-11-16T08:34:57.473Z,21.37
2022-11-16T08:37:26.136Z,21.38
2022-11-16T08:39:54.747Z,21.22
2022-11-16T08:42:22.084Z,21.36
2022-11-16T08:44:50.120Z,21.23
2022-11-16T08:47:20.183Z,20.81
2022-11-16T08:49:51.362Z,21.12
2022-11-16T08:52:20.895Z,21.15
2022-11-16T08:54:50.377Z,22.14
2022-11-16T08:57:18.238Z,21.87
2022-11-16T08:59:48.858Z,21.45
2022-11-16T09:02:16.179Z,21.21
2022-11-16T09:04:43.929Z,21.86
2022-11-16T09:07:11.430Z,21.66
2022-11-16T09:09:38.746Z,21.27
2022-11-16T09:12:06.115Z,21.08
2022-11-16T09:14:33.453Z,20.76
2022-11-16T09:17:00.847Z,21.47
2022-11-16T09:19:28.070Z,20.76
2022-11-16T09:21:55.722Z,21.33
2022-11-16T09:24:22.936Z,21.20
2022-11-16T09:26:50.486Z,21.21
2022-11-16T09:29:17.822Z,21.67
2022-11-16T09:31:45.819Z,20.61
2022-11-16T09:34:13.076Z,20.60
2022-11-16T09:36:40.559Z,21.50
2022-11-16T09:39:29.579Z,20.61
2022-11-16T09:42:03.988Z,20.94
2022-11-16T09:44:37.956Z,21.34
2022-11-16T09:47:09.612Z,21.26
2022-11-16T09:49:39.916Z,20.85
2022-11-16T09:52:11.434Z,21.23
2022-11-16T09:54:41.048Z,21.74
2022-11-16T09:57:12.795Z,21.39
2022-11-16T09:59:46.040Z,21.13
2022-11-16T10:02:27.886Z,20.70
2022-11-16T10:05:14.605Z,20.84
2022-11-16T10:07:46.727Z,21.70
2022-11-16T10:10:17.320Z,22.06
2022-11-16T10:12:53.668Z,22.21
2022-11-16T10:15:21.014Z,21.70
2022-11-16T10:17:51.756Z,21.37
2022-11-16T10:20:34.058Z,20.80
2022-11-16T10:23:10.407Z,20.80
2022-11-16T10:25:44.895Z,21.45
2022-11-16T10:28:24.099Z,20.85
2022-11-16T10:31:13.977Z,21.02
2022-11-16T10:33:43.257Z,21.54
2022-11-16T10:36:14.817Z,21.68
2022-11-16T10:38:43.134Z,21.27
2022-11-16T10:41:27.312Z,20.64
2022-11-16T10:43:56.485Z,21.20
2022-11-16T10:46:23.704Z,21.02
2022-11-16T10:48:56.918Z,20.77
2022-11-16T10:51:24.268Z,21.18
2022-11-16T10:53:53.133Z,21.27
2022-11-16T10:56:40.584Z,20.61
2022-11-16T10:59:12.462Z,20.65
2022-11-16T11:01:57.743Z,20.93
2022-11-16T11:04:25.061Z,21.08
2022-11-16T11:06:53.818Z,20.77
2022-11-16T11:09:23.992Z,20.27
2022-11-16T11:12:20.711Z,21.26
2022-11-16T11:15:00.310Z,20.44
2022-11-16T11:17:28.222Z,21.34
2022-11-16T11:20:00.745Z,20.19
2022-11-16T11:22:28.382Z,21.59
2022-11-16T11:24:55.979Z,22.06
2022-11-16T11:27:24.301Z,21.56
2022-11-16T11:29:53.695Z,21.28
2022-11-16T11:32:24.456Z,21.33
2022-11-16T11:34:56.292Z,21.53
2022-11-16T11:37:26.157Z,21.31
2022-11-16T11:40:13.632Z,21.53
2022-11-16T11:42:41.847Z,21.85
2022-11-16T11:45:13.240Z,22.06
2022-11-16T11:50:37.205Z,21.35
2022-11-16T11:53:11.649Z,21.16
2022-11-16T11:55:39.391Z,21.82
2022-11-16T11:58:11.631Z,22.04
2022-11-16T12:01:02.202Z,21.54
2022-11-16T12:03:31.754Z,21.55
2022-11-16T12:06:06.283Z,21.36
2022-11-16T12:08:39.403Z,22.27
2022-11-16T12:11:15.083Z,20.93
2022-11-16T12:14:00.442Z,21.67
2022-11-16T12:16:43.002Z,21.70
2022-11-16T12:19:28.836Z,21.97
2022-11-16T12:22:08.228Z,21.09
2022-11-16T12:24:50.579Z,21.20
2022-11-16T12:27:37.969Z,20.96
2022-11-16T12:30:13.766Z,21.50
2022-11-16T12:32:41.086Z,20.62
2022-11-16T12:35:17.326Z,20.90
2022-11-16T12:38:10.891Z,20.97
2022-11-16T12:41:03.139Z,20.76
2022-11-16T12:43:42.834Z,20.57
2022-11-16T12:46:30.302Z,20.69
2022-11-16T12:49:04.215Z,20.77
2022-11-16T12:51:51.631Z,20.65
2022-11-16T12:54:18.944Z,20.83
2022-11-16T12:56:49.422Z,21.54
2022-11-16T12:59:22.979Z,21.34
2022-11-16T13:01:50.273Z,21.63
2022-11-16T13:04:41.176Z,20.32
2022-11-16T13:07:14.469Z,20.00
2022-11-16T13:09:47.886Z,20.92
2022-11-16T13:12:23.377Z,20.80
2022-11-16T13:14:52.981Z,20.78
2022-11-16T13:17:31.871Z,20.51
2022-11-16T13:20:15.389Z,20.16
2022-11-16T13:22:46.893Z,20.60
2022-11-16T13:25:23.388Z,21.17
2022-11-16T13:27:55.903Z,21.34
2022-11-16T13:30:33.849Z,21.89
2022-11-16T13:33:03.992Z,20.54
2022-11-16T13:35:31.276Z,20.58
2022-11-16T13:37:58.531Z,20.92
2022-11-16T13:40:27.452Z,19.51
2022-11-16T13:42:59.056Z,20.84
2022-11-16T13:45:29.787Z,20.15
2022-11-16T13:47:57.984Z,20.49
2022-11-16T13:50:38.042Z,21.46
2022-11-16T13:56:01.171Z,21.38
2022-11-16T13:58:29.705Z,21.00
2022-11-16T14:01:11.008Z,21.03
2022-11-16T14:03:39.164Z,20.57
2022-11-16T14:06:26.274Z,20.95
2022-11-16T14:08:54.505Z,21.06
2022-11-16T14:11:54.374Z,21.67
2022-11-16T14:14:40.318Z,21.36
2022-11-16T14:17:07.583Z,21.35
2022-11-16T14:19:49.041Z,20.86
2022-11-16T14:22:34.479Z,21.04
2022-11-16T14:25:05.903Z,21.19
2022-11-16T14:27:38.670Z,20.75
2022-11-16T14:30:15.870Z,20.65
2022-11-16T14:32:47.727Z,20.33
2022-11-16T14:35:34.069Z,20.23
2022-11-16T14:38:03.804Z,20.66
2022-11-16T14:40:43.213Z,20.58
2022-11-16T14:43:22.763Z,20.79
2022-11-16T14:45:54.953Z,20.97
2022-11-16T14:48:25.946Z,21.05
2022-11-16T14:51:02.671Z,21.27
2022-11-16T14:53:30.821Z,21.38
2022-11-16T14:56:08.473Z,21.66
2022-11-16T14:58:36.324Z,21.58
2022-11-16T15:01:06.136Z,21.30
2022-11-16T15:03:36.016Z,21.36
2022-11-16T15:06:04.663Z,21.68
2022-11-16T15:08:52.263Z,21.05
2022-11-16T15:11:49.989Z,21.22
2022-11-16T15:14:21.881Z,21.23
2022-11-16T15:16:53.363Z,21.34
2022-11-16T15:19:21.087Z,21.15
2022-11-16T15:21:55.481Z,21.09
2022-11-16T15:24:31.519Z,21.72
2022-11-16T15:27:23.056Z,21.04
2022-11-16T15:29:50.500Z,21.02
2022-11-16T15:32:18.276Z,21.06
2022-11-16T15:34:51.791Z,21.36
2022-11-16T15:37:29.347Z,21.44
2022-11-16T15:39:57.843Z,21.27
2022-11-16T15:42:26.297Z,21.27
2022-11-16T15:44:54.424Z,21.08
2022-11-16T15:47:23.102Z,21.20
2022-11-16T15:49:53.126Z,21.10
2022-11-16T15:52:39.480Z,21.33
2022-11-16T15:55:06.942Z,21.52
2022-11-16T15:57:34.222Z,21.27
2022-11-16T16:00:01.769Z,21.37
2022-11-16T16:02:32.220Z,21.55
2022-11-16T16:04:59.518Z,21.34
2022-11-16T16:07:40.118Z,21.35
2022-11-16T16:10:22.236Z,21.78
2022-11-16T16:12:50.643Z,21.36
2022-11-16T16:15:31.494Z,21.42
2022-11-16T16:17:59.358Z,21.33
2022-11-16T16:20:28.954Z,21.21
2022-11-16T16:23:09.394Z,21.56
2022-11-16T16:25:37.184Z,21.48
2022-11-16T16:28:04.713Z,21.03
2022-11-16T16:30:33.835Z,21.20
2022-11-16T16:33:02.370Z,21.07
2022-11-16T16:35:29.713Z,21.26
2022-11-16T16:37:58.117Z,21.04
2022-11-16T16:40:26.366Z,21.50
2022-11-16T16:42:55.181Z,21.12
2022-11-16T16:45:43.501Z,21.41
2022-11-16T16:48:14.031Z,20.93
2022-11-16T16:50:41.389Z,21.19
2022-11-16T16:53:11.285Z,21.94
2022-11-16T16:55:38.642Z,21.52
2022-11-16T16:58:06.000Z,21.02
2022-11-16T17:00:33.752Z,21.17
2022-11-16T17:03:01.162Z,21.26
2022-11-16T17:05:29.994Z,21.01
2022-11-16T17:07:57.235Z,21.55
2022-11-16T17:10:24.474Z,20.91
2022-11-16T17:12:55.146Z,21.28
2022-11-16T17:15:22.980Z,21.58
2022-11-16T17:17:50.468Z,21.85
2022-11-16T17:20:17.771Z,21.66
2022-11-16T17:22:46.189Z,21.03
2022-11-16T17:25:14.957Z,21.44
2022-11-16T17:27:42.173Z,21.17
2022-11-16T17:30:09.750Z,21.78
2022-11-16T17:32:37.016Z,21.80
2022-11-16T17:35:04.406Z,21.38
2022-11-16T17:37:31.824Z,21.70
2022-11-16T17:39:59.202Z,21.25
2022-11-16T17:42:26.480Z,21.10
2022-11-16T17:44:55.242Z,21.25
2022-11-16T17:47:22.508Z,21.38
2022-11-16T17:49:49.819Z,21.36
2022-11-16T17:52:17.030Z,21.11
2022-11-16T17:54:44.441Z,21.28
2022-11-16T17:57:11.782Z,20.79
2022-11-16T17:59:39.054Z,21.58
2022-11-16T18:02:06.571Z,21.35
2022-11-16T18:04:34.344Z,21.13
2022-11-16T18:07:01.651Z,21.49
2022-11-16T18:09:28.936Z,21.41
2022-11-16T18:11:56.112Z,21.36
2022-11-16T18:14:23.472Z,21.47
2022-11-16T18:16:50.752Z,22.05
2022-11-16T18:19:18.971Z,21.35
2022-11-16T18:21:46.811Z,21.92
2022-11-16T18:24:14.543Z,21.70
2022-11-16T18:26:42.317Z,21.61
2022-11-16T18:29:12.929Z,21.55
2022-11-16T18:31:40.383Z,20.97
2022-11-16T18:34:07.576Z,21.32
2022-11-16T18:36:34.931Z,20.94
2022-11-16T18:39:02.175Z,21.11
2022-11-16T18:41:29.896Z,21.08
2022-11-16T18:43:58.637Z,21.47
2022-11-16T18:46:29.803Z,21.29
2022-11-16T18:48:57.446Z,21.44
2022-11-16T18:51:27.088Z,20.96
2022-11-16T18:53:54.602Z,21.42
2022-11-16T18:56:22.254Z,21.34
2022-11-16T18:58:51.466Z,21.02
2022-11-16T19:01:20.546Z,21.41
2022-11-16T19:03:48.031Z,21.27
2022-11-16T19:06:17.860Z,21.30
2022-11-16T19:08:49.074Z,21.43
2022-11-16T19:11:21.680Z,21.89
2022-11-16T19:13:52.256Z,21.36
2022-11-16T19:16:19.546Z,21.81
2022-11-16T19:18:46.808Z,21.65
2022-11-16T19:21:16.021Z,21.67
2022-11-16T19:23:44.849Z,21.30
2022-11-16T19:26:13.150Z,21.00
2022-11-16T19:28:41.431Z,21.77
2022-11-16T19:31:12.747Z,21.51
2022-11-16T19:33:40.636Z,21.74
2022-11-16T19:36:07.899Z,21.39
2022-11-16T19:38:35.475Z,21.56
2022-11-16T19:41:02.856Z,21.67
2022-11-16T19:43:30.288Z,21.98
2022-11-16T19:46:01.617Z,21.30
2022-11-16T19:48:29.796Z,21.96
2022-11-16T19:50:57.015Z,21.57
2022-11-16T19:53:24.423Z,22.11
2022-11-16T19:55:55.257Z,21.56
2022-11-16T19:58:22.475Z,21.75
2022-11-16T20:00:49.814Z,21.46
2022-11-16T20:03:17.100Z,21.15
2022-11-16T20:05:44.329Z,20.79
2022-11-16T20:08:11.751Z,21.43
2022-11-16T20:10:39.008Z,21.59
2022-11-16T20:13:06.372Z,21.26
2022-11-16T20:15:33.629Z,20.78
2022-11-16T20:18:01.092Z,21.10
2022-11-16T20:20:28.291Z,21.37
2022-11-16T20:22:55.710Z,20.94
2022-11-16T20:25:22.980Z,20.97
2022-11-16T20:27:50.301Z,20.97
2022-11-16T20:30:17.560Z,20.80
2022-11-16T20:32:44.800Z,21.11
2022-11-16T20:35:17.740Z,21.43
2022-11-16T20:37:46.459Z,21.86
2022-11-16T20:40:13.934Z,21.45
2022-11-16T20:42:41.190Z,21.64
2022-11-16T20:45:08.955Z,22.12
2022-11-16T20:47:36.245Z,21.79
2022-11-16T20:50:03.584Z,21.33
2022-11-16T20:52:30.808Z,21.11
2022-11-16T20:54:57.988Z,20.99
2022-11-16T20:57:25.236Z,20.79
2022-11-16T20:59:52.469Z,21.31
2022-11-16T21:02:19.745Z,20.92
2022-11-16T21:04:46.924Z,20.52
2022-11-16T21:07:14.414Z,20.55
2022-11-16T21:10:00.279Z,20.74
2022-11-16T21:12:46.432Z,21.05
2022-11-16T21:15:13.711Z,21.01
2022-11-16T21:17:40.890Z,20.74
2022-11-16T21:22:55.834Z,20.75
2022-11-16T21:25:23.075Z,21.34
2022-11-16T21:27:50.474Z,21.45
2022-11-16T21:30:17.651Z,21.04
2022-11-16T21:32:44.993Z,20.72
2022-11-16T21:35:12.871Z,21.49
2022-11-16T21:37:40.144Z,21.15
2022-11-16T21:40:07.919Z,21.25
2022-11-16T21:42:35.109Z,21.27
2022-11-16T21:45:02.371Z,20.99
2022-11-16T21:47:29.737Z,21.58
2022-11-16T21:50:30.147Z,21.53
2022-11-16T21:52:44.480Z,21.75
2022-11-16T21:55:12.101Z,21.05
2022-11-16T21:57:39.371Z,21.55
2022-11-16T22:00:07.040Z,21.71
2022-11-16T22:02:38.813Z,20.81
2022-11-16T22:05:24.964Z,20.99
2022-11-16T22:07:52.222Z,20.97
2022-11-16T22:10:19.535Z,21.10
2022-11-16T22:12:47.014Z,21.20
2022-11-16T22:15:14.326Z,20.95
2022-11-16T22:17:44.728Z,20.53
2022-11-16T22:20:12.062Z,20.72
2022-11-16T22:22:40.009Z,21.36
2022-11-16T22:25:07.743Z,21.07
2022-11-16T22:27:47.041Z,21.18
2022-11-16T22:30:22.727Z,20.90
2022-11-16T22:32:50.048Z,20.77
2022-11-16T22:35:17.441Z,21.04
2022-11-16T22:37:44.708Z,21.53
2022-11-16T22:40:17.641Z,20.94
2022-11-16T22:42:45.983Z,21.34
2022-11-16T22:45:13.304Z,21.01
2022-11-16T22:47:40.692Z,21.32
2022-11-16T22:50:08.113Z,21.10
2022-11-16T22:52:35.441Z,21.61
2022-11-16T22:55:02.688Z,21.23
2022-11-16T22:57:30.208Z,21.26
2022-11-16T22:59:57.514Z,21.34
2022-11-16T23:02:25.082Z,21.35
2022-11-16T23:04:52.325Z,21.44
2022-11-16T23:07:19.728Z,21.35
2022-11-16T23:09:47.058Z,21.40
2022-11-16T23:12:33.203Z,21.16
2022-11-16T23:15:19.164Z,21.25
2022-11-16T23:17:46.521Z,21.09
2022-11-16T23:20:32.452Z,20.88
2022-11-16T23:23:18.528Z,20.74
2022-11-16T23:26:06.184Z,21.13
2022-11-16T23:28:33.600Z,21.36
2022-11-16T23:31:00.940Z,21.57
2022-11-16T23:33:46.332Z,21.75
2022-11-16T23:36:13.956Z,21.57
2022-11-16T23:38:41.247Z,21.41
2022-11-16T23:41:27.661Z,21.64
2022-11-16T23:44:00.698Z,21.68
2022-11-16T23:46:31.826Z,21.38
2022-11-16T23:49:00.800Z,21.65
2022-11-16T23:51:28.050Z,21.56
2022-11-16T23:53:55.966Z,20.70
2022-11-16T23:56:23.310Z,21.39
2022-11-16T23:58:50.847Z,21.26
